sensor_id;sensor_type;location;lat;lon;timestamp;pressure;altitude;pressure_sealevel;temperature;humidity
6218;BME280;3142;48.206;11.550;2023-04-10T00:00:10;96440.84;;;6.91;66.41
6218;BME280;3142;48.206;11.550;2023-04-10T00:02:37;96439.53;;;6.95;66.39
6218;BME280;3142;48.206;11.550;2023-04-10T00:05:05;96429.00;;;7.04;66.48
6218;BME280;3142;48.206;11.550;2023-04-10T00:07:31;96431.78;;;7.11;66.48
6218;BME280;3142;48.206;11.550;2023-04-10T00:09:58;96424.81;;;7.20;65.52
6218;BME280;3142;48.206;11.550;2023-04-10T00:12:24;96424.03;;;7.27;65.19
6218;BME280;3142;48.206;11.550;2023-04-10T00:14:52;96428.09;;;7.30;65.13
6218;BME280;3142;48.206;11.550;2023-04-10T00:17:19;96424.34;;;7.40;64.86
6218;BME280;3142;48.206;11.550;2023-04-10T00:19:45;96423.69;;;7.47;65.40
6218;BME280;3142;48.206;11.550;2023-04-10T00:22:12;96414.91;;;7.48;64.23
6218;BME280;3142;48.206;11.550;2023-04-10T00:24:38;96421.75;;;7.40;64.56
6218;BME280;3142;48.206;11.550;2023-04-10T00:27:04;96412.44;;;7.38;64.38
6218;BME280;3142;48.206;11.550;2023-04-10T00:29:31;96408.56;;;7.34;64.05
6218;BME280;3142;48.206;11.550;2023-04-10T00:31:59;96400.25;;;7.22;64.75
6218;BME280;3142;48.206;11.550;2023-04-10T00:34:25;96401.56;;;7.18;64.74
6218;BME280;3142;48.206;11.550;2023-04-10T00:36:51;96403.66;;;7.23;64.35
6218;BME280;3142;48.206;11.550;2023-04-10T00:39:18;96397.16;;;7.19;65.45
6218;BME280;3142;48.206;11.550;2023-04-10T00:41:44;96401.72;;;7.17;65.12
6218;BME280;3142;48.206;11.550;2023-04-10T00:44:11;96398.63;;;7.13;64.99
6218;BME280;3142;48.206;11.550;2023-04-10T00:46:38;96401.53;;;7.10;65.08
6218;BME280;3142;48.206;11.550;2023-04-10T00:49:07;96402.16;;;6.96;65.51
6218;BME280;3142;48.206;11.550;2023-04-10T00:51:35;96397.13;;;6.94;65.71
6218;BME280;3142;48.206;11.550;2023-04-10T00:54:02;96391.44;;;6.91;65.41
6218;BME280;3142;48.206;11.550;2023-04-10T00:56:29;96390.09;;;6.78;66.02
6218;BME280;3142;48.206;11.550;2023-04-10T00:58:57;96400.34;;;6.80;65.64
6218;BME280;3142;48.206;11.550;2023-04-10T01:01:23;96397.41;;;6.75;65.70
6218;BME280;3142;48.206;11.550;2023-04-10T01:03:50;96393.84;;;6.76;66.07
6218;BME280;3142;48.206;11.550;2023-04-10T01:06:25;96395.25;;;6.70;65.92
6218;BME280;3142;48.206;11.550;2023-04-10T01:09:00;96397.53;;;6.65;65.51
6218;BME280;3142;48.206;11.550;2023-04-10T01:11:38;96397.03;;;6.62;66.16
6218;BME280;3142;48.206;11.550;2023-04-10T01:14:15;96397.38;;;6.67;66.55
6218;BME280;3142;48.206;11.550;2023-04-10T01:16:49;96405.03;;;6.76;66.07
6218;BME280;3142;48.206;11.550;2023-04-10T01:19:25;96408.63;;;6.83;65.49
6218;BME280;3142;48.206;11.550;2023-04-10T01:21:59;96401.81;;;6.82;65.54
6218;BME280;3142;48.206;11.550;2023-04-10T01:24:39;96393.34;;;6.72;65.83
6218;BME280;3142;48.206;11.550;2023-04-10T01:27:23;96394.91;;;6.57;66.22
6218;BME280;3142;48.206;11.550;2023-04-10T01:29:55;96396.66;;;6.48;66.26
6218;BME280;3142;48.206;11.550;2023-04-10T01:32:23;96396.19;;;6.45;66.24
6218;BME280;3142;48.206;11.550;2023-04-10T01:34:51;96394.50;;;6.36;66.96
6218;BME280;3142;48.206;11.550;2023-04-10T01:37:21;96389.25;;;6.19;67.40
6218;BME280;3142;48.206;11.550;2023-04-10T01:39:53;96386.94;;;6.16;67.64
6218;BME280;3142;48.206;11.550;2023-04-10T01:42:21;96381.66;;;6.00;67.96
6218;BME280;3142;48.206;11.550;2023-04-10T01:44:49;96376.59;;;5.90;68.20
6218;BME280;3142;48.206;11.550;2023-04-10T01:47:18;96382.97;;;5.78;69.00
6218;BME280;3142;48.206;11.550;2023-04-10T01:49:46;96378.38;;;5.72;69.12
6218;BME280;3142;48.206;11.550;2023-04-10T01:52:14;96371.56;;;5.71;69.00
6218;BME280;3142;48.206;11.550;2023-04-10T01:54:42;96384.84;;;5.68;68.73
6218;BME280;3142;48.206;11.550;2023-04-10T01:57:10;96374.47;;;5.68;69.18
6218;BME280;3142;48.206;11.550;2023-04-10T01:59:39;96366.47;;;5.61;69.67
6218;BME280;3142;48.206;11.550;2023-04-10T02:02:05;96360.56;;;5.51;69.37
6218;BME280;3142;48.206;11.550;2023-04-10T02:04:37;96370.38;;;5.40;69.77
6218;BME280;3142;48.206;11.550;2023-04-10T02:07:07;96366.53;;;5.26;70.84
6218;BME280;3142;48.206;11.550;2023-04-10T02:09:46;96369.06;;;5.18;71.14
6218;BME280;3142;48.206;11.550;2023-04-10T02:12:15;96370.19;;;5.15;71.17
6218;BME280;3142;48.206;11.550;2023-04-10T02:14:45;96370.19;;;5.15;71.18
6218;BME280;3142;48.206;11.550;2023-04-10T02:17:13;96369.06;;;5.18;71.11
6218;BME280;3142;48.206;11.550;2023-04-10T02:19:44;96368.78;;;5.21;71.03
6218;BME280;3142;48.206;11.550;2023-04-10T02:22:12;96372.19;;;5.21;70.75
6218;BME280;3142;48.206;11.550;2023-04-10T02:24:40;96368.63;;;5.22;71.17
6218;BME280;3142;48.206;11.550;2023-04-10T02:27:06;96375.81;;;5.28;71.04
6218;BME280;3142;48.206;11.550;2023-04-10T02:29:33;96375.66;;;5.30;70.34
6218;BME280;3142;48.206;11.550;2023-04-10T02:31:59;96372.53;;;5.26;70.37
6218;BME280;3142;48.206;11.550;2023-04-10T02:34:26;96368.47;;;5.24;70.70
6218;BME280;3142;48.206;11.550;2023-04-10T02:36:54;96368.78;;;5.21;70.82
6218;BME280;3142;48.206;11.550;2023-04-10T02:39:20;96366.19;;;5.21;70.61
6218;BME280;3142;48.206;11.550;2023-04-10T02:41:46;96373.00;;;5.22;70.04
6218;BME280;3142;48.206;11.550;2023-04-10T02:44:13;96369.72;;;5.20;70.18
6218;BME280;3142;48.206;11.550;2023-04-10T02:46:39;96375.72;;;5.20;70.34
6218;BME280;3142;48.206;11.550;2023-04-10T02:49:06;96379.44;;;5.18;70.29
6218;BME280;3142;48.206;11.550;2023-04-10T02:51:33;96379.59;;;5.16;70.01
6218;BME280;3142;48.206;11.550;2023-04-10T02:54:01;96385.44;;;5.18;69.91
6218;BME280;3142;48.206;11.550;2023-04-10T02:56:28;96380.47;;;5.25;69.68
6218;BME280;3142;48.206;11.550;2023-04-10T02:58:54;96380.47;;;5.25;69.73
6218;BME280;3142;48.206;11.550;2023-04-10T03:01:21;96375.59;;;5.22;69.73
6218;BME280;3142;48.206;11.550;2023-04-10T03:03:47;96375.88;;;5.19;69.75
6218;BME280;3142;48.206;11.550;2023-04-10T03:06:14;96364.91;;;5.25;70.08
6218;BME280;3142;48.206;11.550;2023-04-10T03:08:40;96367.00;;;5.21;69.76
6218;BME280;3142;48.206;11.550;2023-04-10T03:11:08;96371.50;;;5.19;69.75
6218;BME280;3142;48.206;11.550;2023-04-10T03:13:35;96367.38;;;5.09;69.81
6218;BME280;3142;48.206;11.550;2023-04-10T03:16:01;96363.91;;;5.00;70.10
6218;BME280;3142;48.206;11.550;2023-04-10T03:18:28;96359.88;;;5.05;69.76
6218;BME280;3142;48.206;11.550;2023-04-10T03:20:56;96357.13;;;5.07;70.21
6218;BME280;3142;48.206;11.550;2023-04-10T03:23:22;96364.78;;;5.09;70.03
6218;BME280;3142;48.206;11.550;2023-04-10T03:25:49;96367.16;;;5.02;70.01
6218;BME280;3142;48.206;11.550;2023-04-10T03:28:17;96371.00;;;4.98;69.80
6218;BME280;3142;48.206;11.550;2023-04-10T03:30:44;96365.72;;;4.90;70.38
6218;BME280;3142;48.206;11.550;2023-04-10T03:33:10;96364.72;;;4.83;70.65
6218;BME280;3142;48.206;11.550;2023-04-10T03:35:37;96361.88;;;4.76;69.96
6218;BME280;3142;48.206;11.550;2023-04-10T03:38:03;96360.84;;;4.69;70.74
6218;BME280;3142;48.206;11.550;2023-04-10T03:40:30;96367.00;;;4.68;70.87
6218;BME280;3142;48.206;11.550;2023-04-10T03:42:58;96376.09;;;4.72;70.93
6218;BME280;3142;48.206;11.550;2023-04-10T03:45:26;96370.81;;;4.64;71.47
6218;BME280;3142;48.206;11.550;2023-04-10T03:47:52;96367.97;;;4.67;71.42
6218;BME280;3142;48.206;11.550;2023-04-10T03:50:19;96366.44;;;4.64;71.28
6218;BME280;3142;48.206;11.550;2023-04-10T03:52:45;96370.00;;;4.63;71.11
6218;BME280;3142;48.206;11.550;2023-04-10T03:55:13;96371.28;;;4.59;71.62
6218;BME280;3142;48.206;11.550;2023-04-10T03:57:43;96370.75;;;4.56;71.59
6218;BME280;3142;48.206;11.550;2023-04-10T04:00:10;96366.75;;;4.61;71.35
6218;BME280;3142;48.206;11.550;2023-04-10T04:02:38;96367.28;;;4.65;71.86
6218;BME280;3142;48.206;11.550;2023-04-10T04:05:05;96380.81;;;4.59;71.76
6218;BME280;3142;48.206;11.550;2023-04-10T04:07:32;96368.72;;;4.50;71.74
6218;BME280;3142;48.206;11.550;2023-04-10T04:09:59;96369.31;;;4.43;71.77
6218;BME280;3142;48.206;11.550;2023-04-10T04:12:25;96381.22;;;4.36;72.18
6218;BME280;3142;48.206;11.550;2023-04-10T04:14:52;96370.09;;;4.26;72.53
6218;BME280;3142;48.206;11.550;2023-04-10T04:17:18;96373.84;;;4.14;73.38
6218;BME280;3142;48.206;11.550;2023-04-10T04:19:46;96366.91;;;4.05;73.04
6218;BME280;3142;48.206;11.550;2023-04-10T04:22:14;96375.66;;;3.94;74.70
6218;BME280;3142;48.206;11.550;2023-04-10T04:24:40;96365.16;;;3.96;74.52
6218;BME280;3142;48.206;11.550;2023-04-10T04:27:06;96367.38;;;3.91;74.34
6218;BME280;3142;48.206;11.550;2023-04-10T04:29:33;96372.69;;;3.89;74.77
6218;BME280;3142;48.206;11.550;2023-04-10T04:31:59;96364.22;;;3.97;74.43
6218;BME280;3142;48.206;11.550;2023-04-10T04:34:26;96372.78;;;3.97;74.56
6218;BME280;3142;48.206;11.550;2023-04-10T04:36:54;96384.91;;;3.97;74.84
6218;BME280;3142;48.206;11.550;2023-04-10T04:39:20;96386.03;;;3.94;74.56
6218;BME280;3142;48.206;11.550;2023-04-10T04:41:47;96389.84;;;4.00;74.67
6218;BME280;3142;48.206;11.550;2023-04-10T04:44:13;96395.91;;;4.08;75.17
6218;BME280;3142;48.206;11.550;2023-04-10T04:46:40;96388.97;;;4.09;74.70
6218;BME280;3142;48.206;11.550;2023-04-10T04:49:06;96398.25;;;4.02;75.13
6218;BME280;3142;48.206;11.550;2023-04-10T04:51:33;96396.34;;;4.04;75.01
6218;BME280;3142;48.206;11.550;2023-04-10T04:54:01;96397.31;;;4.03;75.14
6218;BME280;3142;48.206;11.550;2023-04-10T04:56:27;96394.88;;;4.01;74.52
6218;BME280;3142;48.206;11.550;2023-04-10T04:58:54;96392.94;;;4.03;74.87
6218;BME280;3142;48.206;11.550;2023-04-10T05:01:20;96386.53;;;4.07;75.43
6218;BME280;3142;48.206;11.550;2023-04-10T05:03:47;96381.97;;;4.19;74.25
6218;BME280;3142;48.206;11.550;2023-04-10T05:06:13;96385.66;;;4.16;75.15
6218;BME280;3142;48.206;11.550;2023-04-10T05:08:40;96388.13;;;4.18;74.97
6218;BME280;3142;48.206;11.550;2023-04-10T05:11:08;96392.72;;;4.24;74.33
6218;BME280;3142;48.206;11.550;2023-04-10T05:13:34;96394.75;;;4.30;74.27
6218;BME280;3142;48.206;11.550;2023-04-10T05:16:01;96400.75;;;4.31;73.91
6218;BME280;3142;48.206;11.550;2023-04-10T05:18:27;96396.97;;;4.25;74.38
6218;BME280;3142;48.206;11.550;2023-04-10T05:20:53;96388.13;;;4.18;74.66
6218;BME280;3142;48.206;11.550;2023-04-10T05:23:20;96388.13;;;4.18;74.55
6218;BME280;3142;48.206;11.550;2023-04-10T05:25:46;96383.09;;;4.16;74.17
6218;BME280;3142;48.206;11.550;2023-04-10T05:28:14;96385.22;;;4.21;74.34
6218;BME280;3142;48.206;11.550;2023-04-10T05:30:41;96388.31;;;4.34;74.21
6218;BME280;3142;48.206;11.550;2023-04-10T05:33:07;96389.03;;;4.54;73.93
6218;BME280;3142;48.206;11.550;2023-04-10T05:35:33;96389.88;;;4.72;73.87
6218;BME280;3142;48.206;11.550;2023-04-10T05:38:00;96388.91;;;4.91;73.81
6218;BME280;3142;48.206;11.550;2023-04-10T05:40:27;96393.06;;;5.02;73.12
6218;BME280;3142;48.206;11.550;2023-04-10T05:42:54;96396.88;;;5.08;73.07
6218;BME280;3142;48.206;11.550;2023-04-10T05:45:22;96406.03;;;5.20;72.82
6218;BME280;3142;48.206;11.550;2023-04-10T05:47:48;96400.13;;;5.27;72.54
6218;BME280;3142;48.206;11.550;2023-04-10T05:50:15;96400.69;;;5.39;72.05
6218;BME280;3142;48.206;11.550;2023-04-10T05:52:41;96407.28;;;5.33;71.53
6218;BME280;3142;48.206;11.550;2023-04-10T05:55:08;96407.66;;;5.39;71.80
6218;BME280;3142;48.206;11.550;2023-04-10T05:57:35;96408.63;;;5.38;71.40
6218;BME280;3142;48.206;11.550;2023-04-10T06:00:01;96419.59;;;5.31;71.55
6218;BME280;3142;48.206;11.550;2023-04-10T06:02:31;96419.44;;;5.33;71.33
6218;BME280;3142;48.206;11.550;2023-04-10T06:04:57;96425.91;;;5.29;71.68
6218;BME280;3142;48.206;11.550;2023-04-10T06:07:24;96421.03;;;5.26;71.54
6218;BME280;3142;48.206;11.550;2023-04-10T06:09:51;96424.88;;;5.22;71.37
6218;BME280;3142;48.206;11.550;2023-04-10T06:12:18;96424.06;;;5.21;71.75
6218;BME280;3142;48.206;11.550;2023-04-10T06:14:44;96423.59;;;5.26;71.86
6218;BME280;3142;48.206;11.550;2023-04-10T06:17:10;96420.06;;;5.27;71.63
6218;BME280;3142;48.206;11.550;2023-04-10T06:19:38;96431.44;;;5.34;71.98
6218;BME280;3142;48.206;11.550;2023-04-10T06:22:05;96427.00;;;5.44;71.60
6218;BME280;3142;48.206;11.550;2023-04-10T06:24:31;96426.84;;;5.46;71.34
6218;BME280;3142;48.206;11.550;2023-04-10T06:26:58;96424.06;;;5.39;71.13
6218;BME280;3142;48.206;11.550;2023-04-10T06:29:25;96412.72;;;5.40;71.23
6218;BME280;3142;48.206;11.550;2023-04-10T06:31:51;96410.03;;;5.50;71.32
6218;BME280;3142;48.206;11.550;2023-04-10T06:34:17;96409.03;;;5.69;70.86
6218;BME280;3142;48.206;11.550;2023-04-10T06:36:46;96409.28;;;5.83;70.87
6218;BME280;3142;48.206;11.550;2023-04-10T06:39:12;96410.94;;;6.10;69.67
6218;BME280;3142;48.206;11.550;2023-04-10T06:41:38;96403.06;;;6.28;69.00
6218;BME280;3142;48.206;11.550;2023-04-10T06:44:05;96405.41;;;6.39;68.56
6218;BME280;3142;48.206;11.550;2023-04-10T06:46:31;96399.00;;;6.60;67.45
6218;BME280;3142;48.206;11.550;2023-04-10T06:48:58;96407.34;;;6.88;67.37
6218;BME280;3142;48.206;11.550;2023-04-10T06:51:24;96395.03;;;7.22;66.59
6218;BME280;3142;48.206;11.550;2023-04-10T06:53:52;96392.44;;;7.71;66.02
6218;BME280;3142;48.206;11.550;2023-04-10T06:56:19;96390.41;;;8.14;64.50
6218;BME280;3142;48.206;11.550;2023-04-10T06:58:46;96387.13;;;8.36;62.31
6218;BME280;3142;48.206;11.550;2023-04-10T07:01:12;96385.84;;;8.63;60.50
6218;BME280;3142;48.206;11.550;2023-04-10T07:03:38;96383.00;;;9.04;61.05
6218;BME280;3142;48.206;11.550;2023-04-10T07:06:06;96380.19;;;9.13;58.89
6218;BME280;3142;48.206;11.550;2023-04-10T07:08:32;96386.63;;;9.48;58.21
6218;BME280;3142;48.206;11.550;2023-04-10T07:11:00;96387.13;;;9.82;57.79
6218;BME280;3142;48.206;11.550;2023-04-10T07:13:26;96381.16;;;10.40;56.48
6218;BME280;3142;48.206;11.550;2023-04-10T07:15:53;96372.06;;;10.87;55.68
6218;BME280;3142;48.206;11.550;2023-04-10T07:18:19;96376.31;;;11.09;54.37
6218;BME280;3142;48.206;11.550;2023-04-10T07:20:46;96373.50;;;11.25;53.43
6218;BME280;3142;48.206;11.550;2023-04-10T07:23:12;96377.25;;;11.23;52.58
6218;BME280;3142;48.206;11.550;2023-04-10T07:25:40;96375.03;;;11.20;52.49
6218;BME280;3142;48.206;11.550;2023-04-10T07:28:08;96374.47;;;11.46;51.73
6218;BME280;3142;48.206;11.550;2023-04-10T07:30:34;96374.69;;;11.51;50.98
6218;BME280;3142;48.206;11.550;2023-04-10T07:33:01;96373.09;;;11.99;50.67
6218;BME280;3142;48.206;11.550;2023-04-10T07:35:27;96371.72;;;12.38;50.78
6218;BME280;3142;48.206;11.550;2023-04-10T07:37:54;96369.16;;;13.12;49.35
6218;BME280;3142;48.206;11.550;2023-04-10T07:40:20;96366.41;;;13.53;49.04
6218;BME280;3142;48.206;11.550;2023-04-10T07:42:47;96365.38;;;14.20;46.50
6218;BME280;3142;48.206;11.550;2023-04-10T07:45:14;96372.25;;;14.21;45.57
6218;BME280;3142;48.206;11.550;2023-04-10T07:47:41;96370.63;;;14.27;45.19
6218;BME280;3142;48.206;11.550;2023-04-10T07:50:08;96372.84;;;14.30;45.23
6218;BME280;3142;48.206;11.550;2023-04-10T07:52:35;96363.00;;;14.77;45.62
6218;BME280;3142;48.206;11.550;2023-04-10T07:55:01;96360.84;;;15.37;45.08
6218;BME280;3142;48.206;11.550;2023-04-10T07:57:28;96360.91;;;15.55;43.26
6218;BME280;3142;48.206;11.550;2023-04-10T07:59:56;96360.84;;;15.68;43.31
6218;BME280;3142;48.206;11.550;2023-04-10T08:02:23;96357.63;;;15.91;41.96
6218;BME280;3142;48.206;11.550;2023-04-10T08:04:50;96359.47;;;16.09;41.44
6218;BME280;3142;48.206;11.550;2023-04-10T08:07:19;96359.22;;;16.36;40.79
6218;BME280;3142;48.206;11.550;2023-04-10T08:09:46;96357.56;;;16.16;40.00
6218;BME280;3142;48.206;11.550;2023-04-10T08:12:13;96358.78;;;16.20;40.34
6218;BME280;3142;48.206;11.550;2023-04-10T08:14:39;96354.81;;;16.48;39.31
6218;BME280;3142;48.206;11.550;2023-04-10T08:17:07;96348.13;;;16.82;39.55
6218;BME280;3142;48.206;11.550;2023-04-10T08:19:40;96352.16;;;16.84;38.77
6218;BME280;3142;48.206;11.550;2023-04-10T08:22:07;96355.84;;;16.47;37.87
6218;BME280;3142;48.206;11.550;2023-04-10T08:24:33;96351.13;;;16.30;38.76
6218;BME280;3142;48.206;11.550;2023-04-10T08:27:00;96353.72;;;16.37;38.90
6218;BME280;3142;48.206;11.550;2023-04-10T08:29:26;96354.06;;;16.22;39.24
6218;BME280;3142;48.206;11.550;2023-04-10T08:31:52;96352.09;;;16.18;39.21
6218;BME280;3142;48.206;11.550;2023-04-10T08:34:20;96363.38;;;16.07;39.49
6218;BME280;3142;48.206;11.550;2023-04-10T08:36:49;96357.22;;;16.13;39.46
6218;BME280;3142;48.206;11.550;2023-04-10T08:39:16;96352.38;;;16.10;39.29
6218;BME280;3142;48.206;11.550;2023-04-10T08:41:42;96351.00;;;16.25;39.53
6218;BME280;3142;48.206;11.550;2023-04-10T08:44:09;96341.88;;;16.58;39.49
6218;BME280;3142;48.206;11.550;2023-04-10T08:46:37;96352.78;;;16.86;38.79
6218;BME280;3142;48.206;11.550;2023-04-10T08:49:09;96354.13;;;17.07;38.29
6218;BME280;3142;48.206;11.550;2023-04-10T08:51:38;96356.97;;;17.06;37.51
6218;BME280;3142;48.206;11.550;2023-04-10T08:54:12;96356.28;;;16.80;37.92
6218;BME280;3142;48.206;11.550;2023-04-10T08:56:46;96349.22;;;17.23;38.57
6218;BME280;3142;48.206;11.550;2023-04-10T08:59:15;96351.69;;;17.36;36.58
6218;BME280;3142;48.206;11.550;2023-04-10T09:01:41;96346.09;;;17.14;36.17
6218;BME280;3142;48.206;11.550;2023-04-10T09:04:10;96343.00;;;17.17;36.40
6218;BME280;3142;48.206;11.550;2023-04-10T09:06:37;96340.19;;;17.84;36.56
6218;BME280;3142;48.206;11.550;2023-04-10T09:09:04;96339.03;;;18.26;35.46
6218;BME280;3142;48.206;11.550;2023-04-10T09:11:56;96339.44;;;18.70;35.01
6218;BME280;3142;48.206;11.550;2023-04-10T09:14:25;96335.03;;;19.04;35.10
6218;BME280;3142;48.206;11.550;2023-04-10T09:16:53;96335.38;;;19.08;33.78
6218;BME280;3142;48.206;11.550;2023-04-10T09:19:28;96337.03;;;19.26;34.19
6218;BME280;3142;48.206;11.550;2023-04-10T09:21:55;96339.59;;;19.20;32.91
6218;BME280;3142;48.206;11.550;2023-04-10T09:24:22;96319.44;;;19.53;34.00
6218;BME280;3142;48.206;11.550;2023-04-10T09:26:48;96319.13;;;20.17;34.14
6218;BME280;3142;48.206;11.550;2023-04-10T09:29:17;96320.66;;;19.96;32.21
6218;BME280;3142;48.206;11.550;2023-04-10T09:31:44;96317.50;;;19.99;32.13
6218;BME280;3142;48.206;11.550;2023-04-10T09:34:12;96314.25;;;19.75;32.17
6218;BME280;3142;48.206;11.550;2023-04-10T09:36:40;96314.94;;;20.04;32.53
6218;BME280;3142;48.206;11.550;2023-04-10T09:39:08;96305.50;;;20.13;32.27
6218;BME280;3142;48.206;11.550;2023-04-10T09:41:46;96300.06;;;20.03;31.68
6218;BME280;3142;48.206;11.550;2023-04-10T09:44:17;96302.25;;;19.89;31.73
6218;BME280;3142;48.206;11.550;2023-04-10T09:46:45;96290.28;;;20.08;32.53
6218;BME280;3142;48.206;11.550;2023-04-10T09:49:11;96287.34;;;20.27;31.29
6218;BME280;3142;48.206;11.550;2023-04-10T09:51:37;96296.34;;;20.04;31.03
6218;BME280;3142;48.206;11.550;2023-04-10T09:54:04;96296.69;;;18.95;31.52
6218;BME280;3142;48.206;11.550;2023-04-10T09:56:33;96292.50;;;18.71;31.76
6218;BME280;3142;48.206;11.550;2023-04-10T09:59:02;96292.19;;;18.96;31.48
6218;BME280;3142;48.206;11.550;2023-04-10T10:01:32;96288.00;;;18.71;32.15
6218;BME280;3142;48.206;11.550;2023-04-10T10:04:01;96284.91;;;18.91;32.89
6218;BME280;3142;48.206;11.550;2023-04-10T10:06:29;96272.59;;;19.30;32.28
6218;BME280;3142;48.206;11.550;2023-04-10T10:08:57;96277.78;;;19.37;30.92
6218;BME280;3142;48.206;11.550;2023-04-10T10:11:27;96274.28;;;18.74;30.08
6218;BME280;3142;48.206;11.550;2023-04-10T10:13:54;96277.63;;;18.98;31.28
6218;BME280;3142;48.206;11.550;2023-04-10T10:16:28;96271.72;;;19.41;31.68
6218;BME280;3142;48.206;11.550;2023-04-10T10:19:03;96261.81;;;19.87;31.12
6218;BME280;3142;48.206;11.550;2023-04-10T10:21:32;96261.00;;;20.25;30.88
6218;BME280;3142;48.206;11.550;2023-04-10T10:24:00;96256.00;;;20.07;29.62
6218;BME280;3142;48.206;11.550;2023-04-10T10:26:29;96250.38;;;20.03;30.84
6218;BME280;3142;48.206;11.550;2023-04-10T10:29:02;96248.94;;;20.56;31.41
6218;BME280;3142;48.206;11.550;2023-04-10T10:31:30;96240.31;;;20.27;29.70
6218;BME280;3142;48.206;11.550;2023-04-10T10:34:00;96243.47;;;19.86;29.80
6218;BME280;3142;48.206;11.550;2023-04-10T10:36:29;96242.25;;;19.55;30.09
6218;BME280;3142;48.206;11.550;2023-04-10T10:39:04;96230.44;;;20.23;30.16
6218;BME280;3142;48.206;11.550;2023-04-10T10:41:39;96234.44;;;20.96;28.81
6218;BME280;3142;48.206;11.550;2023-04-10T10:44:13;96241.56;;;20.90;28.19
6218;BME280;3142;48.206;11.550;2023-04-10T10:46:45;96232.44;;;20.81;28.47
6218;BME280;3142;48.206;11.550;2023-04-10T10:49:15;96230.22;;;20.46;29.05
6218;BME280;3142;48.206;11.550;2023-04-10T10:51:42;96226.91;;;20.88;29.58
6218;BME280;3142;48.206;11.550;2023-04-10T10:54:27;96224.13;;;20.73;28.60
6218;BME280;3142;48.206;11.550;2023-04-10T10:56:54;96210.69;;;20.89;29.27
6218;BME280;3142;48.206;11.550;2023-04-10T10:59:53;96216.34;;;21.57;28.80
6218;BME280;3142;48.206;11.550;2023-04-10T11:02:21;96212.59;;;20.94;27.55
6218;BME280;3142;48.206;11.550;2023-04-10T11:04:49;96205.13;;;21.23;28.40
6218;BME280;3142;48.206;11.550;2023-04-10T11:07:16;96194.72;;;21.21;27.99
6218;BME280;3142;48.206;11.550;2023-04-10T11:09:48;96193.78;;;21.33;28.15
6218;BME280;3142;48.206;11.550;2023-04-10T11:12:15;96190.88;;;21.34;28.18
6218;BME280;3142;48.206;11.550;2023-04-10T11:14:42;96182.13;;;21.39;27.69
6218;BME280;3142;48.206;11.550;2023-04-10T11:17:10;96185.00;;;21.32;27.22
6218;BME280;3142;48.206;11.550;2023-04-10T11:19:57;96178.69;;;20.79;28.11
6218;BME280;3142;48.206;11.550;2023-04-10T11:22:24;96173.66;;;20.56;28.39
6218;BME280;3142;48.206;11.550;2023-04-10T11:25:00;96183.88;;;20.42;28.96
6218;BME280;3142;48.206;11.550;2023-04-10T11:27:46;96173.03;;;20.70;28.70
6218;BME280;3142;48.206;11.550;2023-04-10T11:30:34;96169.72;;;20.36;27.81
6218;BME280;3142;48.206;11.550;2023-04-10T11:33:02;96183.44;;;20.28;26.89
6218;BME280;3142;48.206;11.550;2023-04-10T11:35:31;96173.13;;;20.10;26.37
6218;BME280;3142;48.206;11.550;2023-04-10T11:38:14;96182.84;;;19.77;26.92
6218;BME280;3142;48.206;11.550;2023-04-10T11:40:58;96160.53;;;19.23;27.87
6218;BME280;3142;48.206;11.550;2023-04-10T11:43:25;96154.91;;;19.36;28.13
6218;BME280;3142;48.206;11.550;2023-04-10T11:46:01;96146.38;;;19.73;28.71
6218;BME280;3142;48.206;11.550;2023-04-10T11:48:29;96137.03;;;20.36;29.00
6218;BME280;3142;48.206;11.550;2023-04-10T11:50:57;96149.25;;;19.49;27.76
6218;BME280;3142;48.206;11.550;2023-04-10T11:53:26;96140.66;;;19.26;28.38
6218;BME280;3142;48.206;11.550;2023-04-10T11:55:54;96143.56;;;19.24;28.45
6218;BME280;3142;48.206;11.550;2023-04-10T11:58:24;96142.13;;;19.16;27.89
6218;BME280;3142;48.206;11.550;2023-04-10T12:01:00;96127.97;;;19.11;29.22
6218;BME280;3142;48.206;11.550;2023-04-10T12:03:35;96128.72;;;19.45;29.29
6218;BME280;3142;48.206;11.550;2023-04-10T12:06:06;96128.53;;;19.13;28.71
6218;BME280;3142;48.206;11.550;2023-04-10T12:08:34;96131.84;;;19.03;29.00
6218;BME280;3142;48.206;11.550;2023-04-10T12:11:01;96132.56;;;18.99;29.73
6218;BME280;3142;48.206;11.550;2023-04-10T12:13:28;96135.75;;;18.50;29.50
6218;BME280;3142;48.206;11.550;2023-04-10T12:15:58;96134.25;;;17.86;30.22
6218;BME280;3142;48.206;11.550;2023-04-10T12:18:26;96143.09;;;17.68;29.78
6218;BME280;3142;48.206;11.550;2023-04-10T12:20:53;96133.16;;;17.11;30.37
6218;BME280;3142;48.206;11.550;2023-04-10T12:23:23;96141.88;;;17.12;30.82
6218;BME280;3142;48.206;11.550;2023-04-10T12:25:49;96141.22;;;17.16;31.03
6218;BME280;3142;48.206;11.550;2023-04-10T12:28:17;96139.25;;;17.00;31.20
6218;BME280;3142;48.206;11.550;2023-04-10T12:30:48;96134.63;;;16.96;31.17
6218;BME280;3142;48.206;11.550;2023-04-10T12:33:19;96125.59;;;17.03;31.85
6218;BME280;3142;48.206;11.550;2023-04-10T12:35:46;96126.03;;;17.12;31.90
6218;BME280;3142;48.206;11.550;2023-04-10T12:38:13;96129.13;;;17.44;32.22
6218;BME280;3142;48.206;11.550;2023-04-10T12:40:59;96126.50;;;17.32;30.87
6218;BME280;3142;48.206;11.550;2023-04-10T12:43:33;96120.75;;;17.00;30.15
6218;BME280;3142;48.206;11.550;2023-04-10T12:46:00;96117.41;;;17.05;30.65
6218;BME280;3142;48.206;11.550;2023-04-10T12:48:27;96119.00;;;16.94;30.85
6218;BME280;3142;48.206;11.550;2023-04-10T12:50:53;96110.84;;;16.96;31.92
6218;BME280;3142;48.206;11.550;2023-04-10T12:53:20;96093.63;;;17.16;31.92
6218;BME280;3142;48.206;11.550;2023-04-10T12:56:02;96104.28;;;17.33;30.24
6218;BME280;3142;48.206;11.550;2023-04-10T12:58:29;96097.06;;;16.94;30.22
6218;BME280;3142;48.206;11.550;2023-04-10T13:00:57;96099.25;;;16.97;31.13
6218;BME280;3142;48.206;11.550;2023-04-10T13:03:24;96090.50;;;17.20;32.15
6218;BME280;3142;48.206;11.550;2023-04-10T13:05:51;96095.47;;;17.28;31.26
6218;BME280;3142;48.206;11.550;2023-04-10T13:08:17;96098.28;;;17.38;31.32
6218;BME280;3142;48.206;11.550;2023-04-10T13:10:44;96087.19;;;17.64;32.54
6218;BME280;3142;48.206;11.550;2023-04-10T13:13:12;96080.84;;;17.89;32.47
6218;BME280;3142;48.206;11.550;2023-04-10T13:15:39;96083.00;;;18.20;32.28
6218;BME280;3142;48.206;11.550;2023-04-10T13:18:05;96083.75;;;17.64;29.41
6218;BME280;3142;48.206;11.550;2023-04-10T13:20:33;96077.28;;;17.31;29.74
6218;BME280;3142;48.206;11.550;2023-04-10T13:23:00;96073.81;;;17.31;30.04